Etusivu
METAR-TAF:

METAR-TAF

Lentoasemat :

Iowa City Municipal Airport

Iowa City, Iowa, Yhdysvallat

Leveyspiiri: 41-37-58N, Pituuspiiri: 091-32-35W, korkeus merenpinnasta: 203 m

Tämänhetkinen sää

Tämä raportti tehtiin 30 minuuttia sitten, kello 08.52 UTC
Tuuli 16 kn lännestä/luoteesta puuskistuen 28 kn:hen
Lämpötila -1°C
Kosteus 86%
Ilmanpaine 1018 hPa
Näkyvyys: 12.9 km
Pilvistä 1200 ft:n korkeudessa

METAR: KIOW 180852Z AUTO 30016G28KT 8SM OVC012 M01/M03 A3006 RMK AO2 PK WND 31030/0801 SLP187 T10061033 51046

Aika: 03:22 (09:22 UTC)


TAF: puuttuu

Säähavainnot ja -ennusteet yli 4000 lentoasemalta (METAR- ja TAF-raportit).

Käytössä olevat sääasemat on merkitty karttaan keltaisilla ja punaisilla pisteillä.

Aseta hiiri pisteen päälle nähdäksesi sääaseman nimen.

Klikkaa sitten nähdäksesi säähavainnot ja -ennusteet.

Kartan vaihtaminen: klikkaa mustalla rastilla varustettuja vihreitä pisteitä, niin voit zoomata sisään; viivalla varustettua vihreää pistettä, niin voit zoomata ulos tai vihreitä nuolia, niin pääset viereisille kartoille.


METAR-TAF: